createdAt,value
2019-06-07T00:00:38.275Z,15.70
2019-06-07T00:02:59.005Z,15.80
2019-06-07T00:05:28.822Z,15.80
2019-06-07T00:08:07.504Z,15.80
2019-06-07T00:10:36.690Z,15.80
2019-06-07T00:13:03.113Z,15.80
2019-06-07T00:15:32.765Z,15.80
2019-06-07T00:18:02.480Z,15.80
2019-06-07T00:20:32.274Z,15.80
2019-06-07T00:23:02.163Z,15.80
2019-06-07T00:25:32.039Z,15.60
2019-06-07T00:28:01.757Z,15.60
2019-06-07T00:30:46.040Z,15.50
2019-06-07T00:33:02.956Z,15.40
2019-06-07T00:35:32.602Z,15.40
2019-06-07T00:38:02.208Z,15.30
2019-06-07T00:40:32.430Z,15.30
2019-06-07T00:43:02.117Z,15.40
2019-06-07T00:45:31.792Z,15.40
2019-06-07T00:48:01.357Z,15.60
2019-06-07T00:50:30.990Z,15.70
2019-06-07T00:53:23.471Z,15.60
2019-06-07T00:55:32.360Z,15.40
2019-06-07T00:58:02.563Z,15.50
2019-06-07T01:00:32.582Z,15.50
2019-06-07T01:03:02.139Z,15.60
2019-06-07T01:05:31.791Z,15.40
2019-06-07T01:08:03.950Z,15.40
2019-06-07T01:10:52.453Z,15.40
2019-06-07T01:13:04.895Z,15.50
2019-06-07T01:15:34.456Z,15.50
2019-06-07T01:20:35.796Z,15.50
2019-06-07T01:23:05.499Z,15.60
2019-06-07T01:25:35.226Z,15.70
2019-06-07T01:28:05.347Z,15.70
2019-06-07T01:30:34.944Z,15.80
2019-06-07T01:33:04.599Z,15.90
2019-06-07T01:35:34.141Z,15.80
2019-06-07T01:38:03.865Z,15.80
2019-06-07T01:40:33.604Z,15.80
2019-06-07T01:43:04.244Z,15.70
2019-06-07T01:45:33.811Z,15.70
2019-06-07T01:48:03.457Z,15.70
2019-06-07T01:50:33.020Z,15.50
2019-06-07T01:53:02.726Z,15.60
2019-06-07T01:55:32.979Z,15.40
2019-06-07T01:58:02.608Z,15.30
2019-06-07T02:00:32.877Z,15.40
2019-06-07T02:03:02.647Z,15.40
2019-06-07T02:05:32.514Z,15.50
2019-06-07T02:08:02.188Z,15.40
2019-06-07T02:10:33.583Z,15.40
2019-06-07T02:13:02.883Z,15.50
2019-06-07T02:15:36.654Z,15.40
2019-06-07T02:18:04.905Z,15.30
2019-06-07T02:20:34.959Z,15.20
2019-06-07T02:23:04.644Z,15.20
2019-06-07T02:25:43.651Z,15.20
2019-06-07T02:28:27.594Z,15.20
2019-06-07T02:30:47.383Z,15.00
2019-06-07T02:33:08.120Z,15.00
2019-06-07T02:35:40.519Z,15.00
2019-06-07T02:38:09.262Z,15.00
2019-06-07T02:40:38.764Z,14.90
2019-06-07T02:43:08.635Z,15.00
2019-06-07T02:45:43.294Z,14.90
2019-06-07T02:48:10.076Z,14.90
2019-06-07T02:50:39.747Z,14.80
2019-06-07T02:53:09.301Z,14.70
2019-06-07T02:56:33.200Z,14.60
2019-06-07T02:58:10.339Z,14.50
2019-06-07T03:01:03.853Z,14.60
2019-06-07T03:03:17.084Z,14.50
2019-06-07T03:05:47.589Z,14.50
2019-06-07T03:08:18.140Z,14.50
2019-06-07T03:10:49.685Z,14.30
2019-06-07T03:13:20.826Z,14.50
2019-06-07T03:15:52.792Z,14.40
2019-06-07T03:18:53.603Z,14.50
2019-06-07T03:21:27.703Z,14.30
2019-06-07T03:23:57.488Z,14.20
2019-06-07T03:26:27.797Z,14.10
2019-06-07T03:28:58.810Z,14.20
2019-06-07T03:31:35.306Z,14.30
2019-06-07T03:33:59.943Z,14.30
2019-06-07T03:36:29.776Z,14.30
2019-06-07T03:38:59.432Z,14.30
2019-06-07T03:41:32.689Z,14.30
2019-06-07T03:44:00.657Z,14.20
2019-06-07T03:46:35.187Z,14.40
2019-06-07T03:49:02.822Z,14.60
2019-06-07T03:51:34.892Z,14.60
2019-06-07T03:54:03.833Z,14.40
2019-06-07T03:56:35.413Z,14.20
2019-06-07T03:59:05.252Z,14.00
2019-06-07T04:01:37.288Z,14.10
2019-06-07T04:04:06.164Z,14.10
2019-06-07T04:06:36.853Z,14.20
2019-06-07T04:09:07.700Z,14.30
2019-06-07T04:11:39.396Z,14.20
2019-06-07T04:14:08.987Z,14.30
2019-06-07T04:16:43.562Z,14.20
2019-06-07T04:19:10.131Z,14.30
2019-06-07T04:21:42.833Z,14.20
2019-06-07T04:24:11.110Z,14.10
2019-06-07T04:26:43.998Z,13.80
2019-06-07T04:31:43.425Z,13.70
2019-06-07T04:34:13.220Z,13.60
2019-06-07T04:36:56.402Z,13.60
2019-06-07T04:39:14.563Z,13.60
2019-06-07T04:41:45.803Z,13.50
2019-06-07T04:44:17.260Z,13.60
2019-06-07T04:46:50.200Z,13.50
2019-06-07T04:49:22.960Z,13.60
2019-06-07T04:51:53.569Z,13.40
2019-06-07T04:54:23.204Z,13.60
2019-06-07T04:56:52.806Z,13.70
2019-06-07T05:00:01.070Z,13.60
2019-06-07T05:01:54.076Z,13.70
2019-06-07T05:04:23.637Z,13.70
2019-06-07T05:06:53.277Z,13.90
2019-06-07T05:09:23.180Z,13.90
2019-06-07T05:11:52.757Z,14.10
2019-06-07T05:14:22.377Z,14.20
2019-06-07T05:16:51.857Z,14.10
2019-06-07T05:19:21.696Z,14.10
2019-06-07T05:22:03.744Z,14.10
2019-06-07T05:24:22.887Z,14.20
2019-06-07T05:26:52.459Z,14.40
2019-06-07T05:29:22.107Z,14.60
2019-06-07T05:31:52.024Z,14.70
2019-06-07T05:34:21.699Z,14.60
2019-06-07T05:37:10.363Z,14.70
2019-06-07T05:39:22.486Z,14.80
2019-06-07T05:41:52.360Z,14.80
2019-06-07T05:44:21.968Z,14.70
2019-06-07T05:46:51.606Z,14.80
2019-06-07T05:49:21.110Z,14.90
2019-06-07T05:51:51.604Z,14.90
2019-06-07T05:54:21.185Z,15.00
2019-06-07T05:56:50.930Z,14.90
2019-06-07T05:59:20.564Z,15.10
2019-06-07T06:02:02.065Z,15.10
2019-06-07T06:04:21.538Z,15.30
2019-06-07T06:06:51.117Z,15.20
2019-06-07T06:09:21.080Z,15.10
2019-06-07T06:12:01.524Z,15.20
2019-06-07T06:14:22.178Z,15.30
2019-06-07T06:16:52.230Z,15.40
2019-06-07T06:19:22.188Z,15.50
2019-06-07T06:21:52.320Z,15.80
2019-06-07T06:24:22.342Z,15.90
2019-06-07T06:26:57.026Z,15.90
2019-06-07T06:29:23.601Z,16.00
2019-06-07T06:32:39.412Z,16.00
2019-06-07T06:34:24.625Z,16.00
2019-06-07T06:36:54.536Z,16.20
2019-06-07T06:39:25.111Z,16.30
2019-06-07T06:42:03.249Z,16.60
2019-06-07T06:44:26.480Z,16.70
2019-06-07T06:46:58.150Z,16.90
2019-06-07T06:49:27.735Z,16.80
2019-06-07T06:51:57.329Z,16.80
2019-06-07T06:54:39.973Z,16.80
2019-06-07T06:57:17.630Z,16.80
2019-06-07T06:59:39.224Z,17.00
2019-06-07T07:02:01.005Z,17.20
2019-06-07T07:04:30.923Z,17.20
2019-06-07T07:07:00.656Z,17.30
2019-06-07T07:09:30.605Z,17.40
2019-06-07T07:12:10.883Z,17.50
2019-06-07T07:14:31.875Z,17.60
2019-06-07T07:17:01.516Z,17.80
2019-06-07T07:19:31.500Z,17.70
2019-06-07T07:22:01.373Z,17.70
2019-06-07T07:24:31.025Z,17.70
2019-06-07T07:27:00.663Z,17.80
2019-06-07T07:29:30.228Z,18.00
2019-06-07T07:31:59.781Z,18.10
2019-06-07T07:34:35.336Z,18.20
2019-06-07T07:37:00.818Z,18.20
2019-06-07T07:39:30.652Z,18.30
2019-06-07T07:42:18.223Z,18.30
2019-06-07T07:44:31.912Z,18.40
2019-06-07T07:47:01.485Z,18.60
2019-06-07T07:49:32.147Z,18.70
2019-06-07T07:52:01.755Z,18.70
2019-06-07T07:54:31.895Z,18.90
2019-06-07T07:57:01.538Z,19.10
2019-06-07T07:59:41.847Z,19.30
2019-06-07T08:02:02.571Z,19.50
2019-06-07T08:05:13.061Z,19.70
2019-06-07T08:07:03.595Z,19.70
2019-06-07T08:09:33.230Z,19.90
2019-06-07T08:12:02.846Z,19.90
2019-06-07T08:14:32.484Z,20.20
2019-06-07T08:17:02.124Z,20.30
2019-06-07T08:19:32.098Z,20.80
2019-06-07T08:22:01.961Z,21.10
2019-06-07T08:24:31.695Z,21.40
2019-06-07T08:27:24.667Z,21.50
2019-06-07T08:29:44.211Z,21.80
2019-06-07T08:32:03.888Z,22.10
2019-06-07T08:34:33.920Z,22.40
2019-06-07T08:37:03.541Z,23.10
2019-06-07T08:39:33.503Z,23.80
2019-06-07T08:42:15.511Z,24.40
2019-06-07T08:44:34.438Z,24.60
2019-06-07T08:47:18.913Z,24.20
2019-06-07T08:49:36.178Z,24.20
2019-06-07T08:52:11.894Z,24.00
2019-06-07T08:54:37.435Z,23.50
2019-06-07T08:57:20.580Z,23.30
2019-06-07T08:59:38.687Z,23.30
2019-06-07T09:02:22.920Z,23.60
2019-06-07T09:04:39.508Z,23.50
2019-06-07T09:07:19.236Z,23.60
2019-06-07T09:09:40.571Z,23.90
2019-06-07T09:12:11.335Z,23.80
2019-06-07T09:14:59.057Z,23.80
2019-06-07T09:17:12.892Z,24.00
2019-06-07T09:19:42.683Z,23.90
2019-06-07T09:22:12.455Z,23.80
2019-06-07T09:24:42.410Z,24.20
2019-06-07T09:27:12.287Z,24.30
2019-06-07T09:29:42.466Z,24.40
2019-06-07T09:32:18.210Z,24.40
2019-06-07T09:34:43.268Z,24.40
2019-06-07T09:38:03.005Z,24.70
2019-06-07T09:39:45.041Z,25.10
2019-06-07T09:42:14.687Z,25.20
2019-06-07T09:44:45.017Z,25.70
2019-06-07T09:47:31.325Z,25.90
2019-06-07T09:49:45.923Z,26.40
2019-06-07T09:52:15.653Z,26.70
2019-06-07T09:57:17.898Z,26.20
2019-06-07T09:59:47.765Z,26.40
2019-06-07T10:02:17.472Z,26.40
2019-06-07T10:04:47.071Z,26.40
2019-06-07T10:07:31.368Z,26.30
2019-06-07T10:12:19.696Z,26.50
2019-06-07T10:14:49.286Z,26.80
2019-06-07T10:17:19.313Z,27.00
2019-06-07T10:19:49.335Z,27.30
2019-06-07T10:22:19.001Z,27.30
2019-06-07T10:24:48.583Z,27.50
2019-06-07T10:27:18.145Z,27.40
2019-06-07T10:29:47.768Z,27.80
2019-06-07T10:32:17.363Z,27.80
2019-06-07T10:34:47.403Z,27.80
2019-06-07T10:37:16.952Z,28.00
2019-06-07T10:39:49.139Z,28.00
2019-06-07T10:42:18.772Z,27.90
2019-06-07T10:44:48.325Z,28.10
2019-06-07T10:47:17.914Z,28.30
2019-06-07T10:49:47.462Z,28.50
2019-06-07T10:52:17.101Z,28.60
2019-06-07T10:54:46.681Z,28.50
2019-06-07T10:57:16.425Z,28.50
2019-06-07T10:59:46.020Z,28.30
2019-06-07T11:02:16.409Z,28.30
2019-06-07T11:04:45.925Z,28.60
2019-06-07T11:07:15.547Z,28.60
2019-06-07T11:09:45.187Z,28.30
2019-06-07T11:12:15.422Z,28.30
2019-06-07T11:14:45.391Z,28.20
2019-06-07T11:17:15.749Z,27.90
2019-06-07T11:19:45.683Z,27.70
2019-06-07T11:22:15.300Z,27.60
2019-06-07T11:24:45.028Z,27.50
2019-06-07T11:27:16.271Z,27.40
2019-06-07T11:29:48.620Z,26.90
2019-06-07T11:32:19.661Z,26.90
2019-06-07T11:34:49.214Z,26.80
2019-06-07T11:37:19.137Z,26.70
2019-06-07T11:39:49.115Z,26.60
2019-06-07T11:42:20.111Z,26.50
2019-06-07T11:44:56.736Z,26.50
2019-06-07T11:47:21.032Z,26.60
2019-06-07T11:49:50.717Z,26.50
2019-06-07T11:52:20.269Z,26.40
2019-06-07T11:54:49.873Z,26.50
2019-06-07T11:57:19.508Z,26.50
2019-06-07T11:59:49.087Z,26.30
2019-06-07T12:02:18.804Z,26.30
2019-06-07T12:04:48.381Z,26.40
2019-06-07T12:07:19.946Z,26.50
2019-06-07T12:09:56.310Z,26.50
2019-06-07T12:12:20.772Z,26.50
2019-06-07T12:14:50.372Z,26.40
2019-06-07T12:17:19.999Z,26.40
2019-06-07T12:19:49.508Z,26.40
2019-06-07T12:22:20.083Z,26.30
2019-06-07T12:24:49.810Z,26.30
2019-06-07T12:27:20.734Z,26.20
2019-06-07T12:29:50.362Z,26.30
2019-06-07T12:32:21.442Z,26.40
2019-06-07T12:34:52.165Z,26.50
2019-06-07T12:37:28.397Z,26.40
2019-06-07T12:39:53.002Z,26.40
2019-06-07T12:42:22.746Z,26.20
2019-06-07T12:44:52.335Z,26.40
2019-06-07T12:47:23.256Z,26.30
2019-06-07T12:49:52.759Z,26.20
2019-06-07T12:52:23.407Z,26.20
2019-06-07T12:54:53.635Z,26.30
2019-06-07T12:57:24.157Z,26.40
2019-06-07T12:59:54.126Z,26.40
2019-06-07T13:02:25.414Z,26.50
2019-06-07T13:04:54.994Z,26.40
2019-06-07T13:07:24.549Z,26.30
2019-06-07T13:09:54.638Z,26.40
2019-06-07T13:12:24.146Z,26.50
2019-06-07T13:14:53.903Z,26.50
2019-06-07T13:17:24.182Z,26.50
2019-06-07T13:19:53.859Z,26.50
2019-06-07T13:22:24.432Z,26.60
2019-06-07T13:24:54.093Z,26.70
2019-06-07T13:27:24.549Z,26.60
2019-06-07T13:29:54.140Z,26.60
2019-06-07T13:32:23.806Z,26.60
2019-06-07T13:34:53.379Z,26.50
2019-06-07T13:37:23.466Z,26.50
2019-06-07T13:39:53.048Z,26.60
2019-06-07T13:42:22.937Z,26.50
2019-06-07T13:44:52.452Z,26.60
2019-06-07T13:47:23.138Z,26.70
2019-06-07T13:49:55.070Z,26.90
2019-06-07T13:52:24.128Z,26.90
2019-06-07T13:54:53.607Z,26.80
2019-06-07T13:57:24.400Z,26.80
2019-06-07T13:59:53.988Z,26.70
2019-06-07T14:02:26.144Z,26.80
2019-06-07T14:04:55.730Z,26.80
2019-06-07T14:07:26.970Z,26.80
2019-06-07T14:09:56.980Z,26.90
2019-06-07T14:12:27.743Z,27.00
2019-06-07T14:14:57.378Z,27.10
2019-06-07T14:17:28.342Z,27.10
2019-06-07T14:19:58.195Z,27.00
2019-06-07T14:22:29.008Z,27.00
2019-06-07T14:24:58.636Z,27.10
2019-06-07T14:27:29.606Z,27.10
2019-06-07T14:29:59.251Z,27.10
2019-06-07T14:32:28.834Z,27.10
2019-06-07T14:34:58.392Z,27.00
2019-06-07T14:37:29.033Z,26.90
2019-06-07T14:39:58.653Z,26.90
2019-06-07T14:42:29.245Z,27.00
2019-06-07T14:44:58.777Z,27.00
2019-06-07T14:47:29.874Z,27.10
2019-06-07T14:49:59.516Z,27.00
2019-06-07T14:52:30.561Z,27.00
2019-06-07T14:55:00.652Z,27.00
2019-06-07T14:57:31.078Z,27.10
2019-06-07T15:00:10.477Z,27.20
2019-06-07T15:02:36.465Z,27.20
2019-06-07T15:05:05.095Z,27.20
2019-06-07T15:07:34.952Z,27.10
2019-06-07T15:10:05.461Z,27.10
2019-06-07T15:12:35.349Z,27.00
2019-06-07T15:15:05.684Z,26.90
2019-06-07T15:17:35.656Z,27.00
2019-06-07T15:20:06.096Z,27.00
2019-06-07T15:22:36.257Z,27.10
2019-06-07T15:25:06.237Z,27.10
2019-06-07T15:27:35.806Z,27.20
2019-06-07T15:30:10.667Z,27.20
2019-06-07T15:32:39.642Z,27.40
2019-06-07T15:35:09.745Z,27.40
2019-06-07T15:37:39.552Z,27.40
2019-06-07T15:40:10.674Z,27.30
2019-06-07T15:42:51.386Z,27.30
2019-06-07T15:45:11.667Z,27.20
2019-06-07T15:47:41.592Z,27.10
2019-06-07T15:50:11.739Z,27.10
2019-06-07T15:52:43.363Z,27.10
2019-06-07T15:55:13.555Z,27.00
2019-06-07T15:57:43.263Z,27.00
2019-06-07T16:00:14.748Z,26.90
2019-06-07T16:02:44.632Z,26.90
2019-06-07T16:05:14.797Z,26.90
2019-06-07T16:07:44.291Z,26.80
2019-06-07T16:10:15.680Z,26.80
2019-06-07T16:12:59.676Z,26.90
2019-06-07T16:15:17.361Z,26.80
2019-06-07T16:17:46.958Z,26.80
2019-06-07T16:20:16.969Z,26.80
2019-06-07T16:22:46.707Z,26.80
2019-06-07T16:25:16.379Z,26.80
2019-06-07T16:27:46.295Z,26.80
2019-06-07T16:30:17.777Z,26.80
2019-06-07T16:32:47.398Z,26.80
2019-06-07T16:35:17.535Z,26.70
2019-06-07T16:37:50.528Z,26.80
2019-06-07T16:40:18.506Z,26.80
2019-06-07T16:42:49.127Z,26.80
2019-06-07T16:45:19.493Z,26.70
2019-06-07T16:47:49.709Z,26.70
2019-06-07T16:50:19.857Z,26.80
2019-06-07T16:52:49.492Z,26.70
2019-06-07T16:55:19.353Z,26.70
2019-06-07T16:57:49.262Z,26.70
2019-06-07T17:00:19.627Z,26.70
2019-06-07T17:02:49.193Z,26.60
2019-06-07T17:05:19.328Z,26.60
2019-06-07T17:07:49.133Z,26.60
2019-06-07T17:10:19.202Z,26.80
2019-06-07T17:12:49.104Z,26.80
2019-06-07T17:15:19.266Z,26.80
2019-06-07T17:17:49.399Z,26.80
2019-06-07T17:20:19.963Z,26.70
2019-06-07T17:22:49.839Z,26.80
2019-06-07T17:25:20.430Z,26.80
2019-06-07T17:27:50.271Z,26.60
2019-06-07T17:30:21.423Z,26.70
2019-06-07T17:32:58.952Z,26.60
2019-06-07T17:35:22.311Z,26.60
2019-06-07T17:37:52.200Z,26.60
2019-06-07T17:40:22.553Z,26.60
2019-06-07T17:42:52.100Z,26.60
2019-06-07T17:45:21.794Z,26.60
2019-06-07T17:47:52.100Z,26.70
2019-06-07T17:50:21.929Z,26.70
2019-06-07T17:52:52.115Z,26.60
2019-06-07T17:55:22.116Z,26.70
2019-06-07T17:57:52.687Z,26.60
2019-06-07T18:00:33.255Z,26.60
2019-06-07T18:02:55.107Z,26.60
2019-06-07T18:05:24.907Z,26.50
2019-06-07T18:07:56.452Z,26.40
2019-06-07T18:10:45.696Z,26.30
2019-06-07T18:13:15.293Z,26.30
2019-06-07T18:15:46.489Z,26.30
2019-06-07T18:18:16.442Z,26.20
2019-06-07T18:20:47.190Z,26.20
2019-06-07T18:23:17.113Z,26.10
2019-06-07T18:25:46.710Z,26.10
2019-06-07T18:28:16.334Z,26.00
2019-06-07T18:30:46.571Z,26.00
2019-06-07T18:33:16.189Z,26.10
2019-06-07T18:35:46.938Z,26.00
2019-06-07T18:38:16.717Z,26.00
2019-06-07T18:40:47.218Z,26.10
2019-06-07T18:43:16.834Z,26.10
2019-06-07T18:45:47.312Z,26.10
2019-06-07T18:48:16.966Z,26.10
2019-06-07T18:50:46.695Z,26.00
2019-06-07T18:53:16.565Z,26.00
2019-06-07T18:55:47.733Z,25.90
2019-06-07T18:58:17.476Z,26.00
2019-06-07T19:00:47.376Z,26.00
2019-06-07T19:03:16.931Z,26.10
2019-06-07T19:05:47.969Z,26.10
2019-06-07T19:08:17.565Z,26.10
2019-06-07T19:10:48.552Z,26.10
2019-06-07T19:13:18.544Z,26.10
2019-06-07T19:15:49.377Z,26.10
2019-06-07T19:18:19.078Z,26.00
2019-06-07T19:20:50.524Z,26.00
2019-06-07T19:23:20.982Z,26.00
2019-06-07T19:25:50.677Z,26.10
2019-06-07T19:28:20.304Z,25.90
2019-06-07T19:30:50.803Z,25.90
2019-06-07T19:33:20.521Z,26.00
2019-06-07T19:35:51.263Z,25.90
2019-06-07T19:38:21.026Z,25.80
2019-06-07T19:40:52.115Z,25.90
2019-06-07T19:43:21.741Z,25.70
2019-06-07T19:45:52.070Z,25.60
2019-06-07T19:48:21.655Z,25.60
2019-06-07T19:50:52.772Z,25.60
2019-06-07T19:53:23.184Z,25.70
2019-06-07T19:55:53.074Z,25.50
2019-06-07T19:58:23.536Z,25.50
2019-06-07T20:00:53.826Z,25.50
2019-06-07T20:03:23.539Z,25.40
2019-06-07T20:05:54.044Z,25.30
2019-06-07T20:08:23.727Z,25.30
2019-06-07T20:10:54.468Z,25.30
2019-06-07T20:13:24.352Z,25.30
2019-06-07T20:15:55.015Z,25.30
2019-06-07T20:18:27.758Z,25.30
2019-06-07T20:20:58.597Z,25.20
2019-06-07T20:23:28.429Z,25.20
2019-06-07T20:25:58.082Z,25.10
2019-06-07T20:28:27.905Z,25.10
2019-06-07T20:30:57.709Z,25.10
2019-06-07T20:33:27.632Z,25.00
2019-06-07T20:35:58.598Z,25.00
2019-06-07T20:38:28.227Z,25.00
2019-06-07T20:40:58.934Z,24.90
2019-06-07T20:43:28.598Z,24.90
2019-06-07T20:46:00.658Z,24.90
2019-06-07T20:48:29.500Z,24.70
2019-06-07T20:51:00.821Z,24.70
2019-06-07T20:53:30.447Z,24.70
2019-06-07T20:56:00.510Z,24.60
2019-06-07T20:58:29.992Z,24.60
2019-06-07T21:01:00.594Z,24.50
2019-06-07T21:03:30.195Z,24.30
2019-06-07T21:06:01.259Z,24.20
2019-06-07T21:08:30.904Z,23.90
2019-06-07T21:11:01.635Z,23.60
2019-06-07T21:13:31.254Z,23.20
2019-06-07T21:16:01.967Z,22.90
2019-06-07T21:18:31.680Z,22.60
2019-06-07T21:21:02.351Z,22.30
2019-06-07T21:23:32.191Z,22.00
2019-06-07T21:26:02.837Z,21.70
2019-06-07T21:28:32.639Z,21.40
2019-06-07T21:31:03.381Z,21.20
2019-06-07T21:33:33.446Z,20.90
2019-06-07T21:36:04.390Z,20.80
2019-06-07T21:38:34.458Z,20.60
2019-06-07T21:41:04.176Z,20.40
2019-06-07T21:43:33.851Z,20.30
2019-06-07T21:46:06.964Z,20.10
2019-06-07T21:48:35.305Z,20.00
2019-06-07T21:51:06.604Z,19.90
2019-06-07T21:53:36.186Z,19.80
2019-06-07T21:56:07.087Z,19.80
2019-06-07T21:58:37.419Z,19.70
2019-06-07T22:01:14.481Z,19.60
2019-06-07T22:03:45.755Z,19.50
2019-06-07T22:06:15.692Z,19.40
2019-06-07T22:08:47.666Z,19.20
2019-06-07T22:11:19.133Z,19.10
2019-06-07T22:13:48.633Z,18.90
2019-06-07T22:16:28.599Z,18.80
2019-06-07T22:18:49.598Z,18.80
2019-06-07T22:21:19.284Z,18.70
2019-06-07T22:23:50.528Z,18.70
2019-06-07T22:26:20.129Z,18.60
2019-06-07T22:28:49.881Z,18.60
2019-06-07T22:31:19.667Z,18.60
2019-06-07T22:33:49.269Z,18.60
2019-06-07T22:36:19.493Z,18.60
2019-06-07T22:38:49.716Z,18.60
2019-06-07T22:41:21.857Z,18.60
2019-06-07T22:43:51.870Z,18.60
2019-06-07T22:46:36.397Z,18.50
2019-06-07T22:48:52.808Z,18.50
2019-06-07T22:51:41.587Z,18.50
2019-06-07T22:54:11.769Z,18.50
2019-06-07T22:56:53.479Z,18.60
2019-06-07T22:59:23.070Z,18.50
2019-06-07T23:01:52.791Z,18.50
2019-06-07T23:04:22.391Z,18.40
2019-06-07T23:06:51.988Z,18.40
2019-06-07T23:09:21.678Z,18.40
2019-06-07T23:11:51.307Z,18.30
2019-06-07T23:14:20.965Z,18.30
2019-06-07T23:16:55.486Z,18.30
2019-06-07T23:19:22.172Z,18.30
2019-06-07T23:21:51.991Z,18.30
2019-06-07T23:24:22.371Z,18.30
2019-06-07T23:26:51.915Z,18.30
2019-06-07T23:29:21.682Z,18.30
2019-06-07T23:31:51.657Z,18.30
2019-06-07T23:34:21.608Z,18.30
2019-06-07T23:36:51.153Z,18.20
2019-06-07T23:39:22.407Z,18.20
2019-06-07T23:41:52.282Z,18.20
2019-06-07T23:44:21.926Z,18.20
2019-06-07T23:46:51.571Z,18.30
2019-06-07T23:49:22.570Z,18.30
2019-06-07T23:51:52.291Z,18.30
2019-06-07T23:54:22.171Z,18.30
2019-06-07T23:56:51.854Z,18.20
2019-06-07T23:59:22.409Z,18.30
